Date,TemperatureHighF,TemperatureAvgF,TemperatureLowF,DewpointHighF,DewpointAvgF,DewpointLowF,HumidityHigh,HumidityAvg,HumidityLow,PressureMaxIn,PressureMinIn,WindSpeedMaxMPH,WindSpeedAvgMPH,GustSpeedMaxMPH,PrecipitationSumIn
2013-1-1,31,23,12,19,12,2,72,64,49,30.21,30.03,4,0,4,0.00
2013-1-2,27,18,7,19,10,0,78,72,68,30.25,30.09,2,0,2,0.00
2013-1-3,29,22,14,22,14,5,76,72,68,30.21,30.10,5,0,5,0.00
2013-1-4,34,27,22,22,18,15,76,69,55,30.22,30.08,6,2,6,0.00
2013-1-5,33,25,14,26,18,7,78,74,65,30.33,30.05,4,0,4,0.00
2013-1-6,36,33,32,29,26,24,78,76,72,30.31,29.94,4,1,4,0.00
2013-1-7,37,32,28,28,23,20,74,70,60,30.45,30.18,5,1,5,0.00
2013-1-8,37,28,21,30,20,14,77,73,66,30.30,30.19,3,0,3,0.00
2013-1-9,48,36,21,35,25,14,78,65,45,30.52,30.08,6,1,6,0.00
2013-1-10,39,33,23,28,25,16,77,71,62,30.65,30.21,6,2,6,0.03
2013-1-11,57,43,34,49,36,28,80,77,71,30.22,29.79,5,1,5,0.49
2013-1-12,59,48,40,50,42,34,81,79,70,29.99,29.85,3,0,3,0.02
2013-1-13,50,39,31,44,34,26,83,82,80,30.08,29.71,5,1,5,0.74
2013-1-14,31,25,19,26,19,13,83,76,72,30.50,30.08,6,1,6,0.00
2013-1-15,31,23,14,23,16,8,80,74,67,30.49,30.16,3,0,3,0.00
2013-1-16,40,30,21,25,19,15,80,66,44,30.17,29.83,5,1,5,0.00
2013-1-17,42,31,20,28,20,6,74,62,47,30.35,29.97,6,1,6,0.00
2013-1-18,34,26,17,21,14,7,65,60,51,30.49,30.01,7,1,7,0.00
2013-1-19,49,40,33,33,27,21,68,61,50,30.01,29.60,7,2,7,0.00
2013-1-20,43,41,37,34,27,18,70,57,46,29.67,29.58,10,4,10,0.00
2013-1-22,9,8,8,-1,-1,-2,66,65,64,30.30,30.28,3,0,3,0.00
2013-1-23,20,12,6,8,3,-3,70,65,59,30.30,30.09,3,0,3,0.00
2013-1-24,27,15,8,10,4,-1,74,63,44,30.65,30.12,6,1,6,0.00
2013-1-25,23,18,14,15,10,2,77,71,60,30.54,30.03,4,1,4,0.00
2013-1-26,28,22,18,18,14,10,77,71,61,30.50,30.05,3,0,3,0.00
2013-1-27,29,21,11,24,13,4,81,72,59,30.53,30.12,8,1,8,0.00
2013-1-28,43,37,29,38,32,24,83,82,81,30.16,29.88,5,0,5,0.26
2013-1-29,55,45,35,47,39,30,83,79,73,30.04,29.47,7,1,7,0.23
2013-1-30,60,49,32,54,43,26,82,80,73,29.47,29.11,10,1,10,0.31
2013-1-31,32,23,17,26,16,11,78,73,68,29.88,29.24,8,2,10,0.00